createdAt,value
2022-12-31T00:05:05.818Z,98526.34
2022-12-31T00:15:11.971Z,98541.33
2022-12-31T00:25:17.388Z,98534.34
2022-12-31T00:35:23.594Z,98519.86
2022-12-31T00:55:36.512Z,98518.29
2022-12-31T01:05:43.589Z,98521.16
2022-12-31T01:15:51.019Z,98530.21
2022-12-31T01:25:56.996Z,98520.08
2022-12-31T01:36:04.798Z,98509.80
2022-12-31T01:46:14.227Z,98491.82
2022-12-31T01:56:23.596Z,98501.06
2022-12-31T02:06:32.592Z,98503.06
2022-12-31T02:16:42.703Z,98484.35
2022-12-31T02:26:51.249Z,98464.56
2022-12-31T02:37:02.032Z,98467.27
2022-12-31T02:47:11.039Z,98456.86
2022-12-31T02:57:21.755Z,98479.07
2022-12-31T03:07:31.834Z,98484.29
2022-12-31T03:17:38.872Z,98492.30
2022-12-31T03:27:46.588Z,98484.19
2022-12-31T03:37:54.893Z,98498.27
2022-12-31T03:48:02.043Z,98503.67
2022-12-31T03:58:09.294Z,98509.70
2022-12-31T04:08:16.811Z,98519.90
2022-12-31T04:18:24.392Z,98519.52
2022-12-31T04:28:31.333Z,98542.64
2022-12-31T04:38:38.313Z,98553.89
2022-12-31T04:48:46.012Z,98554.64
2022-12-31T04:58:53.334Z,98550.69
2022-12-31T05:09:00.687Z,98532.77
2022-12-31T05:19:09.712Z,98532.98
2022-12-31T05:29:16.864Z,98523.14
2022-12-31T05:39:23.843Z,98534.23
2022-12-31T05:49:31.033Z,98534.19
2022-12-31T05:59:38.571Z,98559.70
2022-12-31T06:09:45.831Z,98570.12
2022-12-31T06:19:52.880Z,98566.38
2022-12-31T06:30:00.105Z,98562.98
2022-12-31T06:40:07.384Z,98567.05
2022-12-31T06:50:14.669Z,98576.11
2022-12-31T07:00:24.759Z,98580.20
2022-12-31T07:10:31.369Z,98595.44
2022-12-31T07:20:37.787Z,98599.45
2022-12-31T07:30:43.676Z,98601.57
2022-12-31T07:40:52.811Z,98596.19
2022-12-31T07:51:00.942Z,98592.30
2022-12-31T08:01:10.924Z,98600.84
2022-12-31T08:11:15.850Z,98610.99
2022-12-31T08:21:26.136Z,98616.95
2022-12-31T08:31:36.500Z,98630.02
2022-12-31T08:41:47.856Z,98637.23
2022-12-31T08:51:55.992Z,98636.88
2022-12-31T09:02:13.069Z,98626.77
2022-12-31T09:12:23.671Z,98622.33
2022-12-31T09:22:31.785Z,98614.58
2022-12-31T09:32:38.174Z,98611.00
2022-12-31T09:42:58.838Z,98610.16
2022-12-31T09:53:08.505Z,98613.02
2022-12-31T10:03:36.126Z,98607.69
2022-12-31T10:13:44.806Z,98605.59
2022-12-31T10:24:04.929Z,98613.20
2022-12-31T10:34:13.869Z,98619.24
2022-12-31T10:44:49.969Z,98610.88
2022-12-31T10:55:24.422Z,98598.90
2022-12-31T11:05:50.902Z,98608.92
2022-12-31T11:16:20.722Z,98599.98
2022-12-31T11:26:28.116Z,98587.41
2022-12-31T11:36:37.329Z,98589.33
2022-12-31T11:46:48.501Z,98576.56
2022-12-31T11:56:59.900Z,98569.38
2022-12-31T12:07:14.627Z,98559.55
2022-12-31T12:17:31.952Z,98558.80
2022-12-31T12:27:39.320Z,98552.11
2022-12-31T12:37:45.494Z,98545.83
2022-12-31T12:47:59.839Z,98534.19
2022-12-31T12:58:04.953Z,98534.79
2022-12-31T13:08:10.748Z,98526.41
2022-12-31T13:18:29.721Z,98537.51
2022-12-31T13:28:42.584Z,98538.62
2022-12-31T13:38:48.433Z,98551.02
2022-12-31T13:48:57.707Z,98571.13
2022-12-31T13:59:02.321Z,98577.44
2022-12-31T14:09:13.604Z,98586.44
2022-12-31T14:19:20.043Z,98583.16
2022-12-31T14:29:28.713Z,98587.14
2022-12-31T14:39:38.911Z,98593.40
2022-12-31T14:49:45.895Z,98600.68
2022-12-31T14:59:54.062Z,98608.46
2022-12-31T15:10:04.044Z,98609.41
2022-12-31T15:20:33.503Z,98614.43
2022-12-31T15:30:39.414Z,98616.75
2022-12-31T15:50:57.806Z,98645.64
2022-12-31T16:01:10.216Z,98639.84
2022-12-31T16:11:18.746Z,98642.86
2022-12-31T16:21:32.111Z,98651.39
2022-12-31T16:31:40.815Z,98651.11
2022-12-31T16:41:48.856Z,98652.29
2022-12-31T16:52:02.415Z,98658.37
2022-12-31T17:02:14.163Z,98668.64
2022-12-31T17:12:22.008Z,98672.11
2022-12-31T17:22:36.770Z,98675.86
2022-12-31T17:32:48.983Z,98673.05
2022-12-31T17:42:56.805Z,98676.95
2022-12-31T17:53:12.715Z,98688.83
2022-12-31T18:03:19.863Z,98694.39
2022-12-31T18:13:28.512Z,98701.32
2022-12-31T18:23:40.419Z,98711.02
2022-12-31T18:33:48.145Z,98714.85
2022-12-31T18:43:56.079Z,98708.84
2022-12-31T18:54:04.799Z,98710.02
2022-12-31T19:04:12.768Z,98708.63
2022-12-31T19:14:24.340Z,98715.24
2022-12-31T19:24:30.458Z,98719.57
2022-12-31T19:34:37.524Z,98725.05
2022-12-31T19:44:44.991Z,98730.07
2022-12-31T19:54:52.436Z,98740.05
2022-12-31T20:04:58.553Z,98727.64
2022-12-31T20:15:04.838Z,98713.98
2022-12-31T20:25:12.485Z,98710.58
2022-12-31T20:35:18.323Z,98712.36
2022-12-31T20:45:25.478Z,98709.63
2022-12-31T20:55:32.764Z,98714.05
2022-12-31T21:05:39.932Z,98715.21
2022-12-31T21:15:50.208Z,98708.71
2022-12-31T21:25:57.117Z,98726.17
2022-12-31T21:36:05.085Z,98721.86
2022-12-31T21:46:12.393Z,98722.27
2022-12-31T21:56:18.905Z,98734.94
2022-12-31T22:06:26.900Z,98743.89
2022-12-31T22:16:34.125Z,98748.54
2022-12-31T22:26:44.775Z,98742.31
2022-12-31T22:36:54.057Z,98744.22
2022-12-31T22:47:01.679Z,98735.93
2022-12-31T22:57:09.746Z,98728.88
2022-12-31T23:07:18.750Z,98731.81
2022-12-31T23:17:45.746Z,98742.47
2022-12-31T23:27:53.023Z,98748.76
2022-12-31T23:38:00.416Z,98754.40
2022-12-31T23:48:06.863Z,98754.09
2022-12-31T23:58:13.997Z,98742.66
